createdAt,value
2018-09-15T00:01:47.695Z,19.93
2018-09-15T00:04:17.872Z,19.94
2018-09-15T00:06:47.984Z,19.96
2018-09-15T00:09:18.064Z,19.91
2018-09-15T00:11:48.172Z,19.89
2018-09-15T00:14:18.262Z,19.88
2018-09-15T00:16:48.341Z,19.91
2018-09-15T00:19:18.448Z,19.89
2018-09-15T00:21:48.588Z,19.81
2018-09-15T00:24:18.686Z,19.81
2018-09-15T00:26:48.704Z,19.78
2018-09-15T00:29:18.860Z,19.75
2018-09-15T00:31:48.929Z,19.72
2018-09-15T00:34:19.052Z,19.68
2018-09-15T00:36:49.071Z,19.69
2018-09-15T00:39:19.173Z,19.72
2018-09-15T00:41:50.380Z,19.75
2018-09-15T00:44:19.484Z,19.74
2018-09-15T00:46:49.530Z,19.73
2018-09-15T00:49:19.607Z,19.64
2018-09-15T00:51:49.600Z,19.68
2018-09-15T00:54:19.796Z,19.70
2018-09-15T00:56:49.903Z,19.68
2018-09-15T00:59:19.926Z,19.70
2018-09-15T01:01:50.036Z,19.67
2018-09-15T01:04:20.222Z,19.66
2018-09-15T01:06:50.288Z,19.63
2018-09-15T01:09:20.304Z,19.63
2018-09-15T01:11:50.417Z,19.62
2018-09-15T01:14:20.642Z,19.63
2018-09-15T01:16:49.911Z,19.61
2018-09-15T01:19:19.080Z,19.55
2018-09-15T01:21:48.227Z,19.56
2018-09-15T01:24:17.394Z,19.53
2018-09-15T01:26:46.538Z,19.57
2018-09-15T01:29:15.732Z,19.54
2018-09-15T01:31:45.428Z,19.54
2018-09-15T01:34:14.576Z,19.47
2018-09-15T01:36:43.715Z,19.45
2018-09-15T01:39:12.871Z,19.42
2018-09-15T01:41:42.020Z,19.39
2018-09-15T01:44:11.187Z,19.39
2018-09-15T01:46:40.343Z,19.36
2018-09-15T01:49:09.511Z,19.32
2018-09-15T01:51:38.690Z,19.37
2018-09-15T01:54:07.866Z,19.33
2018-09-15T01:56:37.043Z,19.26
2018-09-15T01:59:06.211Z,19.23
2018-09-15T02:01:35.496Z,19.28
2018-09-15T02:04:04.646Z,19.24
2018-09-15T02:06:33.794Z,19.20
2018-09-15T02:09:02.987Z,19.21
2018-09-15T02:11:32.158Z,19.18
2018-09-15T02:14:01.388Z,19.16
2018-09-15T02:16:30.806Z,19.14
2018-09-15T02:19:01.251Z,19.14
2018-09-15T02:21:31.191Z,19.12
2018-09-15T02:24:01.306Z,19.10
2018-09-15T02:26:31.312Z,19.12
2018-09-15T02:29:01.582Z,19.09
2018-09-15T02:31:31.543Z,19.04
2018-09-15T02:34:01.560Z,19.00
2018-09-15T02:36:31.663Z,18.95
2018-09-15T02:39:01.699Z,18.83
2018-09-15T02:41:31.818Z,18.88
2018-09-15T02:44:01.803Z,18.86
2018-09-15T02:46:31.934Z,18.80
2018-09-15T02:49:02.019Z,18.81
2018-09-15T02:51:32.008Z,18.78
2018-09-15T02:54:02.074Z,18.73
2018-09-15T02:56:32.219Z,18.74
2018-09-15T02:59:02.222Z,18.69
2018-09-15T03:01:32.248Z,18.70
2018-09-15T03:04:02.407Z,18.65
2018-09-15T03:06:32.483Z,18.62
2018-09-15T03:09:02.495Z,18.51
2018-09-15T03:11:32.512Z,18.52
2018-09-15T03:14:02.655Z,18.53
2018-09-15T03:16:32.672Z,18.36
2018-09-15T03:19:02.775Z,18.38
2018-09-15T03:21:32.787Z,18.43
2018-09-15T03:24:03.450Z,18.43
2018-09-15T03:26:32.946Z,18.38
2018-09-15T03:29:03.126Z,18.45
2018-09-15T03:31:33.094Z,18.44
2018-09-15T03:34:03.122Z,18.37
2018-09-15T03:36:33.255Z,18.41
2018-09-15T03:39:03.339Z,18.41
2018-09-15T03:41:33.531Z,18.35
2018-09-15T03:44:03.451Z,18.40
2018-09-15T03:46:33.514Z,18.43
2018-09-15T03:49:03.633Z,18.46
2018-09-15T03:51:33.827Z,18.47
2018-09-15T03:54:03.711Z,18.44
2018-09-15T03:56:33.819Z,18.44
2018-09-15T03:59:03.859Z,18.46
2018-09-15T04:01:33.887Z,18.51
2018-09-15T04:04:04.002Z,18.45
2018-09-15T04:06:34.147Z,18.46
2018-09-15T04:09:04.478Z,18.50
2018-09-15T04:11:34.204Z,18.43
2018-09-15T04:14:04.327Z,18.43
2018-09-15T04:16:34.314Z,18.44
2018-09-15T04:19:04.407Z,18.43
2018-09-15T04:21:34.527Z,18.45
2018-09-15T04:24:04.540Z,18.49
2018-09-15T04:26:35.024Z,18.48
2018-09-15T04:29:04.835Z,18.42
2018-09-15T04:31:34.856Z,18.45
2018-09-15T04:34:04.863Z,18.41
2018-09-15T04:36:34.909Z,18.34
2018-09-15T04:39:08.271Z,18.40
2018-09-15T04:41:37.487Z,18.31
2018-09-15T04:44:06.879Z,18.34
2018-09-15T04:46:36.089Z,18.30
2018-09-15T04:49:05.474Z,18.27
2018-09-15T04:51:35.460Z,18.29
2018-09-15T04:54:05.447Z,18.30
2018-09-15T04:56:35.879Z,18.28
2018-09-15T04:59:08.451Z,18.29
2018-09-15T05:01:37.615Z,18.28
2018-09-15T05:04:15.163Z,18.28
2018-09-15T05:06:44.566Z,18.22
2018-09-15T05:09:14.111Z,18.17
2018-09-15T05:11:43.367Z,18.09
2018-09-15T05:14:12.626Z,18.10
2018-09-15T05:16:41.822Z,18.08
2018-09-15T05:19:11.023Z,18.04
2018-09-15T05:21:40.239Z,18.09
2018-09-15T05:24:09.398Z,17.99
2018-09-15T05:26:38.574Z,17.96
2018-09-15T05:29:09.543Z,17.96
2018-09-15T05:31:39.974Z,17.94
2018-09-15T05:34:09.378Z,17.91
2018-09-15T05:36:38.568Z,17.90
2018-09-15T05:39:10.951Z,17.94
2018-09-15T05:41:40.159Z,17.93
2018-09-15T05:44:09.551Z,17.97
2018-09-15T05:46:40.111Z,17.95
2018-09-15T05:49:09.423Z,17.83
2018-09-15T05:51:38.596Z,17.89
2018-09-15T05:54:07.823Z,17.93
2018-09-15T05:56:37.377Z,17.95
2018-09-15T05:59:07.804Z,17.90
2018-09-15T06:01:37.609Z,17.91
2018-09-15T06:04:07.659Z,17.91
2018-09-15T06:06:37.843Z,17.89
2018-09-15T06:09:09.930Z,17.91
2018-09-15T06:11:39.175Z,17.93
2018-09-15T06:14:08.431Z,17.93
2018-09-15T06:16:38.191Z,17.92
2018-09-15T06:19:08.149Z,17.95
2018-09-15T06:21:38.251Z,17.96
2018-09-15T06:24:08.211Z,18.01
2018-09-15T06:26:38.174Z,18.04
2018-09-15T06:29:08.359Z,18.06
2018-09-15T06:31:38.359Z,18.12
2018-09-15T06:34:08.433Z,18.11
2018-09-15T06:36:38.684Z,18.13
2018-09-15T06:39:10.777Z,18.21
2018-09-15T06:41:40.203Z,18.24
2018-09-15T06:44:09.358Z,18.26
2018-09-15T06:46:38.599Z,18.34
2018-09-15T06:49:07.787Z,18.44
2018-09-15T06:51:36.999Z,18.44
2018-09-15T06:54:06.460Z,18.45
2018-09-15T06:56:36.610Z,18.48
2018-09-15T06:59:06.604Z,18.52
2018-09-15T07:01:39.740Z,18.54
2018-09-15T07:04:11.093Z,18.56
2018-09-15T07:06:40.384Z,18.46
2018-09-15T07:09:12.655Z,18.50
2018-09-15T07:11:41.807Z,18.50
2018-09-15T07:14:11.578Z,18.54
2018-09-15T07:16:40.956Z,18.60
2018-09-15T07:19:10.111Z,18.64
2018-09-15T07:21:39.246Z,18.73
2018-09-15T07:24:08.406Z,18.56
2018-09-15T07:26:37.875Z,18.67
2018-09-15T07:29:07.627Z,18.86
2018-09-15T07:31:37.919Z,18.74
2018-09-15T07:34:07.831Z,18.82
2018-09-15T07:36:40.601Z,18.93
2018-09-15T07:39:11.588Z,18.97
2018-09-15T07:41:41.031Z,19.01
2018-09-15T07:44:10.192Z,19.05
2018-09-15T07:46:39.345Z,19.08
2018-09-15T07:49:08.491Z,18.99
2018-09-15T07:51:38.352Z,19.09
2018-09-15T07:54:08.406Z,19.19
2018-09-15T07:56:38.546Z,19.39
2018-09-15T07:59:08.656Z,19.54
2018-09-15T08:01:38.623Z,19.73
2018-09-15T08:04:08.708Z,19.86
2018-09-15T08:06:38.962Z,19.99
2018-09-15T08:09:09.083Z,20.08
2018-09-15T08:11:39.232Z,20.20
2018-09-15T08:14:09.172Z,20.34
2018-09-15T08:16:39.383Z,20.39
2018-09-15T08:19:09.308Z,20.48
2018-09-15T08:21:39.525Z,20.58
2018-09-15T08:24:09.443Z,20.61
2018-09-15T08:31:43.547Z,20.53
2018-09-15T08:34:12.701Z,20.75
2018-09-15T08:36:42.173Z,20.89
2018-09-15T08:39:11.499Z,20.91
2018-09-15T08:41:41.031Z,21.06
2018-09-15T08:44:10.198Z,21.18
2018-09-15T08:46:40.110Z,21.38
2018-09-15T08:49:10.171Z,21.50
2018-09-15T08:51:39.991Z,21.44
2018-09-15T08:54:10.031Z,21.44
2018-09-15T08:56:40.178Z,21.48
2018-09-15T08:59:10.143Z,21.47
2018-09-15T09:01:40.062Z,21.41
2018-09-15T09:04:10.115Z,21.47
2018-09-15T09:06:40.143Z,21.45
2018-09-15T09:09:11.675Z,21.30
2018-09-15T09:11:40.848Z,21.21
2018-09-15T09:14:11.051Z,21.11
2018-09-15T09:16:40.196Z,21.18
2018-09-15T09:19:09.351Z,21.20
2018-09-15T09:21:38.499Z,21.31
2018-09-15T09:24:07.681Z,21.32
2018-09-15T09:26:37.210Z,21.43
2018-09-15T09:29:06.275Z,21.52
2018-09-15T09:31:35.431Z,21.65
2018-09-15T09:34:04.589Z,21.74
2018-09-15T09:36:33.737Z,21.82
2018-09-15T09:39:02.886Z,21.69
2018-09-15T09:41:32.112Z,21.58
2018-09-15T09:44:02.482Z,21.80
2018-09-15T09:46:31.662Z,21.89
2018-09-15T09:49:01.619Z,21.86
2018-09-15T09:51:31.651Z,21.89
2018-09-15T09:54:01.758Z,21.92
2018-09-15T09:56:31.723Z,21.82
2018-09-15T09:59:01.889Z,21.88
2018-09-15T10:01:37.155Z,21.92
2018-09-15T10:04:06.693Z,21.98
2018-09-15T10:06:35.857Z,21.88
2018-09-15T10:09:07.963Z,21.88
2018-09-15T10:11:37.463Z,21.73
2018-09-15T10:14:06.647Z,21.83
2018-09-15T10:16:35.790Z,21.78
2018-09-15T10:19:04.947Z,21.80
2018-09-15T10:21:34.162Z,21.71
2018-09-15T10:24:03.239Z,21.60
2018-09-15T10:26:32.800Z,21.59
2018-09-15T10:29:02.818Z,21.55
2018-09-15T10:31:32.898Z,21.41
2018-09-15T10:34:02.947Z,21.49
2018-09-15T10:36:32.985Z,21.60
2018-09-15T10:39:03.140Z,21.72
2018-09-15T10:41:33.111Z,21.85
2018-09-15T10:44:03.122Z,21.78
2018-09-15T10:46:33.337Z,21.97
2018-09-15T10:49:03.258Z,22.15
2018-09-15T10:51:33.286Z,22.28
2018-09-15T10:54:03.295Z,22.39
2018-09-15T10:56:33.468Z,22.53
2018-09-15T10:59:03.430Z,22.54
2018-09-15T11:01:33.442Z,22.38
2018-09-15T11:04:03.605Z,22.41
2018-09-15T11:06:33.599Z,22.43
2018-09-15T11:09:04.887Z,22.49
2018-09-15T11:11:34.039Z,22.44
2018-09-15T11:14:03.798Z,22.39
2018-09-15T11:16:33.764Z,22.26
2018-09-15T11:19:03.882Z,22.25
2018-09-15T11:21:33.859Z,22.20
2018-09-15T11:24:04.013Z,22.19
2018-09-15T11:26:34.035Z,22.15
2018-09-15T11:29:04.172Z,22.03
2018-09-15T11:31:34.078Z,21.94
2018-09-15T11:34:04.475Z,21.83
2018-09-15T11:36:34.158Z,21.93
2018-09-15T11:39:05.543Z,21.87
2018-09-15T11:41:34.682Z,22.00
2018-09-15T11:44:04.351Z,22.00
2018-09-15T11:46:34.502Z,22.09
2018-09-15T11:49:04.547Z,22.05
2018-09-15T11:51:34.595Z,22.11
2018-09-15T11:54:04.559Z,22.21
2018-09-15T11:56:34.651Z,22.34
2018-09-15T11:59:04.663Z,22.38
2018-09-15T12:01:34.686Z,22.39
2018-09-15T12:04:04.739Z,22.46
2018-09-15T12:06:34.939Z,22.31
2018-09-15T12:09:07.168Z,22.31
2018-09-15T12:11:36.318Z,22.16
2018-09-15T12:14:05.519Z,22.23
2018-09-15T12:16:35.119Z,22.30
2018-09-15T12:19:05.375Z,22.10
2018-09-15T12:21:35.390Z,22.32
2018-09-15T12:24:05.361Z,22.47
2018-09-15T12:26:35.335Z,22.61
2018-09-15T12:29:05.615Z,22.68
2018-09-15T12:31:35.495Z,22.70
2018-09-15T12:34:05.498Z,22.70
2018-09-15T12:36:35.638Z,22.76
2018-09-15T12:39:08.254Z,22.65
2018-09-15T12:41:37.395Z,22.83
2018-09-15T12:44:06.547Z,22.97
2018-09-15T12:46:35.870Z,23.08
2018-09-15T12:49:06.091Z,23.13
2018-09-15T12:51:35.946Z,23.21
2018-09-15T12:54:06.602Z,23.16
2018-09-15T12:56:36.135Z,23.13
2018-09-15T12:59:06.106Z,23.11
2018-09-15T13:01:36.135Z,23.14
2018-09-15T13:04:06.202Z,23.02
2018-09-15T13:06:36.253Z,23.00
2018-09-15T13:09:09.995Z,22.96
2018-09-15T13:11:39.175Z,23.13
2018-09-15T13:14:08.622Z,23.23
2018-09-15T13:16:38.134Z,23.26
2018-09-15T13:19:07.277Z,23.18
2018-09-15T13:21:36.558Z,23.11
2018-09-15T13:24:07.027Z,23.13
2018-09-15T13:26:36.728Z,23.25
2018-09-15T13:29:06.822Z,23.28
2018-09-15T13:31:36.832Z,23.44
2018-09-15T13:34:06.987Z,23.43
2018-09-15T13:36:36.870Z,23.49
2018-09-15T13:39:09.948Z,23.55
2018-09-15T13:41:39.078Z,23.51
2018-09-15T13:44:08.521Z,23.48
2018-09-15T13:46:37.698Z,23.31
2018-09-15T13:49:07.628Z,23.30
2018-09-15T13:51:37.282Z,23.25
2018-09-15T13:54:07.443Z,23.32
2018-09-15T13:56:37.331Z,23.26
2018-09-15T13:59:07.439Z,23.11
2018-09-15T14:01:37.499Z,23.06
2018-09-15T14:04:07.616Z,22.94
2018-09-15T14:06:37.587Z,22.86
2018-09-15T14:09:10.067Z,22.79
2018-09-15T14:11:39.514Z,22.69
2018-09-15T14:14:08.688Z,22.78
2018-09-15T14:16:37.829Z,22.82
2018-09-15T14:19:07.899Z,22.84
2018-09-15T14:21:37.919Z,22.75
2018-09-15T14:24:08.080Z,22.70
2018-09-15T14:26:38.134Z,22.88
2018-09-15T14:29:08.180Z,22.83
2018-09-15T14:31:38.270Z,22.90
2018-09-15T14:34:08.315Z,22.68
2018-09-15T14:36:38.688Z,22.78
2018-09-15T14:39:10.798Z,22.83
2018-09-15T14:41:39.943Z,22.86
2018-09-15T14:44:09.143Z,22.98
2018-09-15T14:46:39.051Z,23.00
2018-09-15T14:49:09.032Z,23.00
2018-09-15T14:51:39.027Z,22.99
2018-09-15T14:54:09.171Z,23.08
2018-09-15T14:56:38.318Z,23.07
2018-09-15T14:59:07.732Z,23.13
2018-09-15T15:01:36.974Z,23.17
2018-09-15T15:04:06.134Z,23.08
2018-09-15T15:06:35.282Z,22.99
2018-09-15T15:09:05.940Z,22.98
2018-09-15T15:11:35.152Z,22.81
2018-09-15T15:14:04.308Z,22.76
2018-09-15T15:16:33.451Z,22.71
2018-09-15T15:19:02.602Z,22.73
2018-09-15T15:21:31.740Z,22.66
2018-09-15T15:24:00.927Z,22.53
2018-09-15T15:26:30.149Z,22.57
2018-09-15T15:28:59.315Z,22.57
2018-09-15T15:31:29.475Z,22.53
2018-09-15T15:33:58.586Z,22.45
2018-09-15T15:36:27.728Z,22.44
2018-09-15T15:38:56.919Z,22.32
2018-09-15T15:41:26.063Z,22.38
2018-09-15T15:43:55.245Z,22.38
2018-09-15T15:46:24.339Z,22.27
2018-09-15T15:48:53.474Z,22.31
2018-09-15T15:51:22.700Z,22.29
2018-09-15T15:53:52.075Z,22.32
2018-09-15T15:56:21.230Z,22.25
2018-09-15T15:58:50.766Z,22.29
2018-09-15T16:01:20.375Z,22.27
2018-09-15T16:03:49.602Z,22.25
2018-09-15T16:06:18.751Z,22.17
2018-09-15T16:08:48.003Z,22.20
2018-09-15T16:11:17.244Z,22.22
2018-09-15T16:13:46.318Z,22.20
2018-09-15T16:16:15.459Z,22.17
2018-09-15T16:18:44.795Z,22.13
2018-09-15T16:21:13.944Z,22.09
2018-09-15T16:23:43.109Z,22.03
2018-09-15T16:26:12.258Z,21.97
2018-09-15T16:28:42.175Z,21.84
2018-09-15T16:31:12.281Z,21.76
2018-09-15T16:33:42.286Z,21.69
2018-09-15T16:36:12.427Z,21.59
2018-09-15T16:38:42.535Z,21.70
2018-09-15T16:41:12.562Z,21.70
2018-09-15T16:43:42.842Z,21.73
2018-09-15T16:46:12.635Z,21.68
2018-09-15T16:48:42.803Z,21.71
2018-09-15T16:51:12.834Z,21.71
2018-09-15T16:53:42.891Z,21.71
2018-09-15T16:56:13.063Z,21.58
2018-09-15T16:58:43.138Z,21.61
2018-09-15T17:01:13.149Z,21.56
2018-09-15T17:03:43.271Z,21.54
2018-09-15T17:06:13.243Z,21.43
2018-09-15T17:08:43.355Z,21.47
2018-09-15T17:11:13.470Z,21.47
2018-09-15T17:13:43.570Z,21.47
2018-09-15T17:16:13.610Z,21.39
2018-09-15T17:18:43.687Z,21.35
2018-09-15T17:21:13.750Z,21.35
2018-09-15T17:23:43.811Z,21.32
2018-09-15T17:28:39.157Z,21.33
2018-09-15T17:31:08.343Z,21.31
2018-09-15T17:33:37.447Z,21.25
2018-09-15T17:36:06.843Z,21.27
2018-09-15T17:38:36.238Z,21.21
2018-09-15T17:41:05.446Z,21.16
2018-09-15T17:43:34.589Z,21.11
2018-09-15T17:46:03.911Z,21.00
2018-09-15T17:48:33.051Z,20.94
2018-09-15T17:51:02.199Z,20.92
2018-09-15T17:53:31.419Z,20.87
2018-09-15T17:56:00.566Z,20.93
2018-09-15T17:58:29.706Z,20.82
2018-09-15T18:00:58.898Z,20.78
2018-09-15T18:03:28.083Z,20.79
2018-09-15T18:05:57.190Z,20.77
2018-09-15T18:08:26.332Z,20.70
2018-09-15T18:10:55.516Z,20.67
2018-09-15T18:13:24.667Z,20.62
2018-09-15T18:15:53.819Z,20.55
2018-09-15T18:18:22.963Z,20.47
2018-09-15T18:20:52.663Z,20.45
2018-09-15T18:23:21.807Z,20.46
2018-09-15T18:25:52.404Z,20.45
2018-09-15T18:28:21.542Z,20.40
2018-09-15T18:30:50.690Z,20.32
2018-09-15T18:33:19.831Z,20.26
2018-09-15T18:35:48.998Z,20.27
2018-09-15T18:38:18.131Z,20.19
2018-09-15T18:40:47.395Z,20.15
2018-09-15T18:43:16.556Z,20.10
2018-09-15T18:45:45.858Z,20.01
2018-09-15T18:48:16.047Z,19.94
2018-09-15T18:50:46.056Z,19.87
2018-09-15T18:53:16.043Z,19.81
2018-09-15T18:55:46.142Z,19.73
2018-09-15T18:58:16.279Z,19.63
2018-09-15T19:00:46.352Z,19.63
2018-09-15T19:03:17.083Z,19.59
2018-09-15T19:05:47.021Z,19.48
2018-09-15T19:08:16.451Z,19.36
2018-09-15T19:10:46.794Z,19.28
2018-09-15T19:13:16.691Z,19.26
2018-09-15T19:15:46.755Z,19.20
2018-09-15T19:18:16.858Z,19.18
2018-09-15T19:20:46.827Z,19.16
2018-09-15T19:23:16.843Z,19.12
2018-09-15T19:25:46.963Z,19.09
2018-09-15T19:28:17.050Z,18.99
2018-09-15T19:30:47.107Z,18.99
2018-09-15T19:33:17.227Z,18.93
2018-09-15T19:35:47.294Z,18.90
2018-09-15T19:38:17.427Z,18.91
2018-09-15T19:40:47.407Z,18.84
2018-09-15T19:43:17.611Z,18.88
2018-09-15T19:45:48.203Z,18.84
2018-09-15T19:48:17.990Z,18.71
2018-09-15T19:50:47.583Z,18.57
2018-09-15T19:53:17.674Z,18.45
2018-09-15T19:55:48.090Z,18.49
2018-09-15T19:58:17.919Z,18.44
2018-09-15T20:00:48.139Z,18.39
2018-09-15T20:03:18.046Z,18.17
2018-09-15T20:05:48.060Z,18.12
2018-09-15T20:08:18.196Z,18.20
2018-09-15T20:10:48.297Z,18.11
2018-09-15T20:13:18.331Z,18.19
2018-09-15T20:15:47.011Z,18.17
2018-09-15T20:18:14.683Z,18.09
2018-09-15T20:20:42.347Z,18.07
2018-09-15T20:23:11.500Z,18.00
2018-09-15T20:25:40.643Z,17.88
2018-09-15T20:28:09.851Z,17.75
2018-09-15T20:30:38.997Z,17.69
2018-09-15T20:33:08.266Z,17.65
2018-09-15T20:35:37.341Z,17.69
2018-09-15T20:38:06.650Z,17.54
2018-09-15T20:40:35.799Z,17.52
2018-09-15T20:43:04.955Z,17.38
2018-09-15T20:45:34.107Z,17.43
2018-09-15T20:48:03.286Z,17.47
2018-09-15T20:50:32.457Z,17.47
2018-09-15T20:53:01.615Z,17.40
2018-09-15T20:55:30.806Z,17.45
2018-09-15T20:58:00.114Z,17.36
2018-09-15T21:00:29.258Z,17.36
2018-09-15T21:02:58.415Z,17.30
2018-09-15T21:05:27.610Z,17.25
2018-09-15T21:07:56.770Z,17.24
2018-09-15T21:10:25.915Z,17.17
2018-09-15T21:12:55.066Z,17.03
2018-09-15T21:15:24.211Z,17.03
2018-09-15T21:17:53.437Z,17.04
2018-09-15T21:20:22.579Z,16.98
2018-09-15T21:22:52.989Z,16.92
2018-09-15T21:25:22.205Z,16.94
2018-09-15T21:27:51.367Z,16.98
2018-09-15T21:30:20.506Z,16.95
2018-09-15T21:32:50.642Z,16.95
2018-09-15T21:35:20.725Z,16.91
2018-09-15T21:37:50.844Z,16.84
2018-09-15T21:40:20.895Z,16.82
2018-09-15T21:42:50.992Z,16.80
2018-09-15T21:45:21.003Z,16.87
2018-09-15T21:47:51.024Z,16.73
2018-09-15T21:50:21.146Z,16.67
2018-09-15T21:52:51.227Z,16.58
2018-09-15T21:55:21.228Z,16.45
2018-09-15T21:57:51.335Z,16.52
2018-09-15T22:00:21.402Z,16.48
2018-09-15T22:02:51.422Z,16.52
2018-09-15T22:05:21.554Z,16.51
2018-09-15T22:07:52.926Z,16.45
2018-09-15T22:10:22.094Z,16.43
2018-09-15T22:12:53.034Z,16.47
2018-09-15T22:15:26.171Z,16.53
2018-09-15T22:17:57.307Z,16.44
2018-09-15T22:20:26.618Z,16.50
2018-09-15T22:22:55.751Z,16.45
2018-09-15T22:25:24.915Z,16.51
2018-09-15T22:27:54.055Z,16.45
2018-09-15T22:30:23.206Z,16.42
2018-09-15T22:32:52.453Z,16.39
2018-09-15T22:35:22.579Z,16.41
2018-09-15T22:37:53.815Z,16.45
2018-09-15T22:40:23.007Z,16.43
2018-09-15T22:42:53.965Z,16.38
2018-09-15T22:45:23.140Z,16.33
2018-09-15T22:52:56.651Z,16.04
2018-09-15T22:55:25.807Z,16.12
2018-09-15T22:57:55.763Z,16.10
2018-09-15T23:00:24.913Z,16.15
2018-09-15T23:02:54.054Z,16.08
2018-09-15T23:05:23.419Z,16.01
2018-09-15T23:07:53.655Z,15.97
2018-09-15T23:10:23.399Z,15.98
2018-09-15T23:12:53.544Z,15.92
2018-09-15T23:15:23.562Z,15.93
2018-09-15T23:17:53.552Z,15.81
2018-09-15T23:20:23.699Z,15.86
2018-09-15T23:22:53.718Z,15.77
2018-09-15T23:25:23.843Z,15.79
2018-09-15T23:27:53.867Z,15.76
2018-09-15T23:30:23.898Z,15.77
2018-09-15T23:32:53.989Z,15.76
2018-09-15T23:35:24.117Z,15.76
2018-09-15T23:37:54.118Z,15.62
2018-09-15T23:40:24.246Z,15.63
2018-09-15T23:42:54.207Z,15.67
2018-09-15T23:45:24.286Z,15.60
2018-09-15T23:47:54.407Z,15.67
2018-09-15T23:50:24.531Z,15.77
2018-09-15T23:52:54.462Z,15.71
2018-09-15T23:55:24.697Z,15.68
2018-09-15T23:57:54.678Z,15.60
